Time;durP1;ratioP1;P1;durP2;ratioP2;P2;SDS_P1;SDS_P2;PMS_P1;PMS_P2;Temp;Humidity;BMP_temperature;BMP_pressure;BME280_temperature;BME280_humidity;BME280_pressure;Samples;Min_cycle;Max_cycle;Signal;HPM_P1;HPM_P2
2023/02/05 00:00:18;;;;;;;2.05;0.70;;;;;;;;;;5002164;28;20064;-64
2023/02/05 00:02:46;;;;;;;1.65;0.55;;;;;;;;;;5001399;28;20041;-61
2023/02/05 00:05:12;;;;;;;2.28;0.68;;;;;;;;;;5001745;28;20041;-63
2023/02/05 00:07:39;;;;;;;1.35;0.47;;;;;;;;;;5001753;28;20046;-63
2023/02/05 00:10:06;;;;;;;1.10;0.43;;;;;;;;;;5001837;28;20052;-64
2023/02/05 00:12:32;;;;;;;1.95;0.47;;;;;;;;;;5000078;28;20470;-63
2023/02/05 00:14:59;;;;;;;1.83;0.57;;;;;;;;;;4996417;28;20537;-63
2023/02/05 00:17:26;;;;;;;1.60;0.50;;;;;;;;;;5001221;28;20042;-63
2023/02/05 00:19:52;;;;;;;2.50;0.77;;;;;;;;;;5002514;28;20041;-61
2023/02/05 00:22:19;;;;;;;4.65;0.80;;;;;;;;;;5000813;28;20060;-65
2023/02/05 00:24:45;;;;;;;2.90;0.90;;;;;;;;;;5001692;28;20053;-63
2023/02/05 00:27:12;;;;;;;4.93;0.82;;;;;;;;;;5003375;28;20045;-63
2023/02/05 00:29:39;;;;;;;5.05;0.80;;;;;;;;;;4995111;28;20044;-64
2023/02/05 00:32:05;;;;;;;1.88;0.60;;;;;;;;;;5000679;28;20053;-63
2023/02/05 00:34:32;;;;;;;3.72;0.70;;;;;;;;;;5000276;28;20045;-62
2023/02/05 00:36:59;;;;;;;2.78;0.90;;;;;;;;;;5003022;28;20065;-64
2023/02/05 00:39:25;;;;;;;3.55;0.75;;;;;;;;;;4982654;28;20045;-63
2023/02/05 00:41:52;;;;;;;3.22;0.80;;;;;;;;;;5001784;28;20049;-63
2023/02/05 00:44:18;;;;;;;2.15;0.70;;;;;;;;;;5001226;28;20080;-65
2023/02/05 00:46:46;;;;;;;2.70;0.98;;;;;;;;;;5000072;28;20512;-63
2023/02/05 00:49:13;;;;;;;2.25;0.80;;;;;;;;;;5001686;28;20073;-63
2023/02/05 00:51:39;;;;;;;2.10;0.70;;;;;;;;;;4993024;28;20439;-64
2023/02/05 00:54:06;;;;;;;2.42;0.88;;;;;;;;;;5001867;28;20108;-63
2023/02/05 00:56:33;;;;;;;3.05;0.75;;;;;;;;;;5001462;28;20549;-63
2023/02/05 00:58:59;;;;;;;3.63;0.90;;;;;;;;;;5000487;28;21048;-66
2023/02/05 01:01:26;;;;;;;5.95;1.10;;;;;;;;;;4995642;28;20123;-63
2023/02/05 01:03:53;;;;;;;2.90;0.80;;;;;;;;;;5001369;28;20055;-63
2023/02/05 01:06:19;;;;;;;2.88;0.98;;;;;;;;;;4996122;28;20442;-63
2023/02/05 01:09:06;;;;;;;4.35;0.65;;;;;;;;;;4992190;28;20795;-63
2023/02/05 01:11:32;;;;;;;6.53;4.22;;;;;;;;;;4976923;28;20074;-64
2023/02/05 01:13:59;;;;;;;13.40;5.50;;;;;;;;;;4989839;28;20056;-62
2023/02/05 01:16:26;;;;;;;101.07;50.85;;;;;;;;;;4992470;28;20058;-66
2023/02/05 01:18:55;;;;;;;67.00;35.65;;;;;;;;;;4991686;28;20081;-61
2023/02/05 01:21:23;;;;;;;31.33;15.18;;;;;;;;;;4988302;28;20133;-64
2023/02/05 01:23:51;;;;;;;14.07;6.28;;;;;;;;;;4991817;28;20044;-63
2023/02/05 01:26:18;;;;;;;8.52;4.60;;;;;;;;;;4991469;28;20085;-62
2023/02/05 01:28:44;;;;;;;8.05;2.30;;;;;;;;;;5009795;28;20037;-62
2023/02/05 01:31:11;;;;;;;9.18;4.22;;;;;;;;;;5010655;28;20034;-62
2023/02/05 01:33:38;;;;;;;7.38;2.70;;;;;;;;;;5003567;28;20041;-64
2023/02/05 01:36:05;;;;;;;5.05;2.28;;;;;;;;;;5007430;28;20445;-63
2023/02/05 01:38:31;;;;;;;8.40;3.28;;;;;;;;;;5007725;28;20041;-62
2023/02/05 01:40:58;;;;;;;5.35;1.48;;;;;;;;;;5009277;28;21307;-64
2023/02/05 01:43:25;;;;;;;4.07;1.25;;;;;;;;;;4995792;28;20982;-62
2023/02/05 01:45:59;;;;;;;4.53;0.80;;;;;;;;;;5002271;28;20092;-63
2023/02/05 01:48:29;;;;;;;3.20;0.88;;;;;;;;;;5019255;28;20041;-63
2023/02/05 01:50:58;;;;;;;2.08;0.65;;;;;;;;;;5019742;28;20044;-63
2023/02/05 01:53:27;;;;;;;7.35;1.00;;;;;;;;;;5019211;28;20045;-65
2023/02/05 01:55:59;;;;;;;1.75;0.60;;;;;;;;;;5020318;28;20044;-61
2023/02/05 01:58:27;;;;;;;2.05;0.65;;;;;;;;;;5017976;28;20049;-65
2023/02/05 02:00:54;;;;;;;2.55;0.80;;;;;;;;;;5013756;28;20094;-64
2023/02/05 02:03:20;;;;;;;2.25;0.68;;;;;;;;;;5019324;28;20053;-64
2023/02/05 02:05:47;;;;;;;4.93;0.93;;;;;;;;;;5020801;28;20042;-62
2023/02/05 02:08:14;;;;;;;2.70;0.80;;;;;;;;;;5019735;28;20152;-62
2023/02/05 02:10:42;;;;;;;5.45;0.90;;;;;;;;;;5016345;28;20037;-65
2023/02/05 02:13:10;;;;;;;3.20;0.95;;;;;;;;;;5020693;28;20075;-63
2023/02/05 02:15:37;;;;;;;2.35;0.80;;;;;;;;;;5019185;28;20128;-62
2023/02/05 02:20:56;;;;;;;3.30;0.85;;;;;;;;;;5018732;28;20176;-63
2023/02/05 02:23:27;;;;;;;6.15;0.90;;;;;;;;;;5018208;28;20049;-65
2023/02/05 02:26:12;;;;;;;2.35;0.70;;;;;;;;;;5020415;28;20049;-63
2023/02/05 02:28:50;;;;;;;2.30;0.70;;;;;;;;;;5012728;28;20052;-65
2023/02/05 02:31:17;;;;;;;2.13;0.63;;;;;;;;;;5019079;28;20041;-63
2023/02/05 02:34:05;;;;;;;2.63;0.60;;;;;;;;;;5008097;28;20127;-64
2023/02/05 02:36:37;;;;;;;1.88;0.60;;;;;;;;;;5020780;28;20037;-65
2023/02/05 02:39:06;;;;;;;2.80;0.60;;;;;;;;;;4999708;28;20216;-63
2023/02/05 02:41:52;;;;;;;2.15;0.60;;;;;;;;;;4993329;28;20105;-64
2023/02/05 02:44:23;;;;;;;2.05;0.70;;;;;;;;;;4987294;28;20038;-63
2023/02/05 02:46:52;;;;;;;3.42;0.90;;;;;;;;;;4983808;28;20038;-64
2023/02/05 02:49:22;;;;;;;2.90;0.75;;;;;;;;;;4975816;28;20038;-65
2023/02/05 02:51:50;;;;;;;4.28;1.20;;;;;;;;;;4983507;28;20046;-65
2023/02/05 02:54:18;;;;;;;3.22;0.90;;;;;;;;;;4996425;28;20038;-63
2023/02/05 02:56:45;;;;;;;5.35;1.02;;;;;;;;;;4996463;28;20139;-63
2023/02/05 02:59:18;;;;;;;6.05;1.58;;;;;;;;;;4995418;28;20052;-64
2023/02/05 03:01:47;;;;;;;9.05;2.55;;;;;;;;;;4989989;28;20054;-64
2023/02/05 03:04:18;;;;;;;6.93;2.65;;;;;;;;;;4975403;28;20085;-65
2023/02/05 03:06:48;;;;;;;7.43;2.90;;;;;;;;;;4959847;28;20514;-65
2023/02/05 03:09:33;;;;;;;7.53;2.85;;;;;;;;;;4971978;28;21897;-65
2023/02/05 03:11:59;;;;;;;4.72;2.00;;;;;;;;;;4973973;28;20047;-65
2023/02/05 03:14:26;;;;;;;2.78;1.00;;;;;;;;;;4991797;28;20057;-65
2023/02/05 03:16:53;;;;;;;7.00;0.90;;;;;;;;;;5008479;28;20045;-63
2023/02/05 03:19:23;;;;;;;4.00;1.30;;;;;;;;;;5020102;28;20345;-63
2023/02/05 03:21:54;;;;;;;3.97;1.48;;;;;;;;;;5022260;28;20467;-61
2023/02/05 03:24:20;;;;;;;5.50;2.15;;;;;;;;;;5022007;28;20045;-64
2023/02/05 03:26:47;;;;;;;5.20;1.75;;;;;;;;;;5022601;28;20037;-64
2023/02/05 03:29:15;;;;;;;6.13;2.00;;;;;;;;;;5022479;28;20048;-64
2023/02/05 03:31:47;;;;;;;3.30;1.05;;;;;;;;;;5022380;28;20048;-63
2023/02/05 03:34:36;;;;;;;3.10;0.77;;;;;;;;;;5024109;28;20083;-64
2023/02/05 03:37:21;;;;;;;4.03;0.85;;;;;;;;;;5022749;28;20047;-64
2023/02/05 03:40:06;;;;;;;2.25;0.80;;;;;;;;;;5013494;28;20121;-63
2023/02/05 03:42:56;;;;;;;3.90;0.80;;;;;;;;;;5023914;28;20120;-63
2023/02/05 03:46:00;;;;;;;5.93;1.67;;;;;;;;;;4989557;28;20034;-62
2023/02/05 03:49:05;;;;;;;5.30;2.60;;;;;;;;;;4990375;28;20399;-64
2023/02/05 03:51:50;;;;;;;4.03;1.67;;;;;;;;;;4918566;29;20154;-64
2023/02/05 03:54:16;;;;;;;6.05;2.05;;;;;;;;;;4920301;29;20043;-63
2023/02/05 03:56:46;;;;;;;7.85;2.78;;;;;;;;;;4961427;28;20073;-63
2023/02/05 03:59:15;;;;;;;4.57;1.70;;;;;;;;;;4986301;28;20108;-64
2023/02/05 04:01:42;;;;;;;5.32;2.03;;;;;;;;;;4974487;28;20061;-66
2023/02/05 04:04:08;;;;;;;5.28;1.63;;;;;;;;;;4986706;28;20042;-62
2023/02/05 04:06:37;;;;;;;3.65;1.40;;;;;;;;;;4985096;28;20046;-63
2023/02/05 04:09:03;;;;;;;4.53;1.50;;;;;;;;;;4988064;28;20567;-62
2023/02/05 04:11:31;;;;;;;4.75;1.13;;;;;;;;;;4984750;28;20039;-63
2023/02/05 04:13:58;;;;;;;7.03;1.30;;;;;;;;;;4986951;28;20038;-62
2023/02/05 04:16:25;;;;;;;6.72;1.20;;;;;;;;;;4986288;28;20042;-63
2023/02/05 04:18:52;;;;;;;4.90;1.30;;;;;;;;;;4986413;28;20039;-61
2023/02/05 04:21:18;;;;;;;4.55;1.20;;;;;;;;;;4984646;28;20045;-63
2023/02/05 04:23:45;;;;;;;4.07;1.45;;;;;;;;;;5014688;28;20061;-62
2023/02/05 04:26:12;;;;;;;5.60;1.60;;;;;;;;;;5031106;28;20041;-64
2023/02/05 04:28:38;;;;;;;5.25;1.67;;;;;;;;;;5029528;28;20044;-64
2023/02/05 04:31:08;;;;;;;4.93;1.60;;;;;;;;;;5030729;28;20059;-66
2023/02/05 04:33:35;;;;;;;7.45;1.50;;;;;;;;;;5029069;28;20078;-63
2023/02/05 04:36:02;;;;;;;7.65;1.83;;;;;;;;;;5031196;28;20067;-63
2023/02/05 04:38:28;;;;;;;6.82;2.13;;;;;;;;;;5030985;28;20064;-65
2023/02/05 04:40:55;;;;;;;6.88;2.13;;;;;;;;;;5031346;28;21097;-64
2023/02/05 04:43:22;;;;;;;4.68;1.95;;;;;;;;;;5030761;28;20097;-63
2023/02/05 04:45:48;;;;;;;4.95;2.10;;;;;;;;;;5031333;28;20047;-64
2023/02/05 04:48:15;;;;;;;4.45;1.90;;;;;;;;;;5032486;28;20105;-65
2023/02/05 04:50:42;;;;;;;5.28;2.00;;;;;;;;;;5028071;28;20065;-63
2023/02/05 04:53:09;;;;;;;5.63;2.20;;;;;;;;;;5031118;28;20128;-65
2023/02/05 04:55:36;;;;;;;5.18;2.10;;;;;;;;;;5022433;28;20040;-63
2023/02/05 04:58:02;;;;;;;6.60;2.08;;;;;;;;;;5023253;28;20038;-63
2023/02/05 05:00:29;;;;;;;4.95;1.85;;;;;;;;;;5021868;28;20037;-63
2023/02/05 05:02:56;;;;;;;10.65;2.20;;;;;;;;;;5021505;28;20053;-63
2023/02/05 05:05:23;;;;;;;5.40;2.20;;;;;;;;;;5021807;28;20041;-63
2023/02/05 05:07:49;;;;;;;5.53;2.05;;;;;;;;;;5022770;28;20053;-64
2023/02/05 05:10:16;;;;;;;5.18;2.05;;;;;;;;;;5021932;28;20033;-63
2023/02/05 05:12:43;;;;;;;6.65;1.95;;;;;;;;;;5021788;28;20040;-63
2023/02/05 05:15:09;;;;;;;5.85;1.92;;;;;;;;;;5022788;28;20463;-65
2023/02/05 05:17:56;;;;;;;6.55;1.80;;;;;;;;;;5017798;28;20156;-64
2023/02/05 05:20:22;;;;;;;6.20;1.90;;;;;;;;;;5017173;28;20091;-64
2023/02/05 05:22:49;;;;;;;7.05;2.00;;;;;;;;;;5016949;28;20050;-64
2023/02/05 05:25:16;;;;;;;9.18;2.05;;;;;;;;;;5007742;28;20089;-63
2023/02/05 05:27:42;;;;;;;10.88;2.05;;;;;;;;;;5014957;28;20049;-63
2023/02/05 05:30:09;;;;;;;5.50;2.00;;;;;;;;;;5017597;28;20037;-65
2023/02/05 05:32:36;;;;;;;5.57;2.28;;;;;;;;;;5019767;28;20056;-64
2023/02/05 05:35:03;;;;;;;6.28;2.38;;;;;;;;;;5016548;28;20134;-64
2023/02/05 05:37:29;;;;;;;4.97;1.90;;;;;;;;;;5019223;28;20041;-64
2023/02/05 05:45:26;;;;;;;9.93;2.22;;;;;;;;;;5018636;28;20103;-62
2023/02/05 05:47:53;;;;;;;5.88;2.17;;;;;;;;;;5016693;28;20545;-63
2023/02/05 05:50:19;;;;;;;7.03;2.13;;;;;;;;;;5019933;28;20060;-66
2023/02/05 05:52:46;;;;;;;9.63;2.55;;;;;;;;;;5020699;28;20041;-64
2023/02/05 05:55:13;;;;;;;4.78;1.83;;;;;;;;;;5020128;28;20052;-64
2023/02/05 05:57:39;;;;;;;8.95;1.83;;;;;;;;;;5020756;28;20053;-65
2023/02/05 06:00:06;;;;;;;5.97;2.00;;;;;;;;;;5019751;28;20573;-64
2023/02/05 06:02:33;;;;;;;4.72;2.10;;;;;;;;;;5020733;28;20697;-63
2023/02/05 06:05:01;;;;;;;4.55;2.03;;;;;;;;;;5023307;28;20544;-64
2023/02/05 06:07:27;;;;;;;8.20;2.33;;;;;;;;;;5022649;28;20033;-64
2023/02/05 06:09:54;;;;;;;7.65;1.85;;;;;;;;;;5023281;28;20052;-66
2023/02/05 06:12:20;;;;;;;5.80;1.73;;;;;;;;;;5020798;28;20069;-64
2023/02/05 06:14:47;;;;;;;5.90;1.70;;;;;;;;;;5031301;28;20184;-66
2023/02/05 06:17:14;;;;;;;10.63;2.50;;;;;;;;;;5033263;28;20096;-63
2023/02/05 06:19:40;;;;;;;11.10;2.30;;;;;;;;;;5033116;28;20143;-62
2023/02/05 06:22:07;;;;;;;4.32;1.65;;;;;;;;;;5030980;28;20175;-65
2023/02/05 06:24:33;;;;;;;7.63;2.60;;;;;;;;;;5031013;28;20076;-64
2023/02/05 06:27:00;;;;;;;8.32;3.03;;;;;;;;;;5032178;28;20124;-64
2023/02/05 06:29:27;;;;;;;11.07;4.22;;;;;;;;;;5028579;28;20105;-64
2023/02/05 06:31:53;;;;;;;7.10;2.58;;;;;;;;;;5032016;28;20148;-64
2023/02/05 06:34:20;;;;;;;8.32;2.35;;;;;;;;;;5026627;28;20041;-62
2023/02/05 06:36:47;;;;;;;7.22;2.50;;;;;;;;;;5022492;28;20581;-65
2023/02/05 06:39:13;;;;;;;6.85;2.15;;;;;;;;;;5021210;28;20073;-61
2023/02/05 06:41:40;;;;;;;8.38;2.25;;;;;;;;;;5018802;28;20105;-62
2023/02/05 06:44:07;;;;;;;9.93;2.60;;;;;;;;;;5014570;28;20140;-64
2023/02/05 06:46:33;;;;;;;6.00;2.45;;;;;;;;;;5010908;28;20120;-64
2023/02/05 06:49:00;;;;;;;6.32;2.30;;;;;;;;;;5020687;28;20164;-62
2023/02/05 06:51:27;;;;;;;6.07;2.35;;;;;;;;;;5030014;28;20089;-62
2023/02/05 06:53:56;;;;;;;6.88;2.10;;;;;;;;;;5030340;28;20111;-64
2023/02/05 06:56:23;;;;;;;6.60;2.00;;;;;;;;;;5013344;28;20056;-61
2023/02/05 06:58:50;;;;;;;5.18;1.80;;;;;;;;;;5033257;28;20053;-63
2023/02/05 07:01:16;;;;;;;8.07;1.48;;;;;;;;;;5031881;28;20049;-62
2023/02/05 07:03:43;;;;;;;4.93;1.63;;;;;;;;;;5032609;28;20758;-63
2023/02/05 07:06:10;;;;;;;8.55;1.65;;;;;;;;;;5034602;28;20149;-63
2023/02/05 07:08:37;;;;;;;3.85;1.17;;;;;;;;;;5032378;28;20029;-63
2023/02/05 07:11:23;;;;;;;3.92;1.27;;;;;;;;;;5033074;28;20037;-63
2023/02/05 07:13:50;;;;;;;4.45;1.20;;;;;;;;;;5004224;28;20045;-64
2023/02/05 07:16:16;;;;;;;4.60;1.10;;;;;;;;;;4998651;28;21927;-63
2023/02/05 07:18:43;;;;;;;3.20;1.08;;;;;;;;;;4993469;28;20053;-62
2023/02/05 07:21:12;;;;;;;3.33;1.17;;;;;;;;;;4999173;28;20045;-61
2023/02/05 07:23:39;;;;;;;4.90;1.38;;;;;;;;;;4998776;28;20050;-61
2023/02/05 07:26:07;;;;;;;2.95;1.02;;;;;;;;;;5000213;28;20034;-63
2023/02/05 07:28:34;;;;;;;2.97;0.95;;;;;;;;;;4994656;28;20037;-64
2023/02/05 07:31:05;;;;;;;3.88;1.10;;;;;;;;;;4978266;28;20038;-62
2023/02/05 07:33:32;;;;;;;2.80;0.80;;;;;;;;;;5007343;28;20060;-63
2023/02/05 07:36:02;;;;;;;3.33;1.00;;;;;;;;;;5012841;28;20129;-63
2023/02/05 07:38:30;;;;;;;3.05;1.05;;;;;;;;;;4995622;28;20045;-63
2023/02/05 07:40:58;;;;;;;5.00;1.00;;;;;;;;;;5011387;28;20085;-63
2023/02/05 07:43:26;;;;;;;2.53;1.00;;;;;;;;;;5007551;28;20110;-64
2023/02/05 07:45:56;;;;;;;3.53;1.10;;;;;;;;;;5027474;28;20110;-64
2023/02/05 07:48:23;;;;;;;3.22;0.95;;;;;;;;;;5026879;28;20040;-63
2023/02/05 07:50:50;;;;;;;2.70;0.90;;;;;;;;;;5024777;28;20041;-64
2023/02/05 07:53:16;;;;;;;2.35;0.80;;;;;;;;;;5033594;28;20037;-64
2023/02/05 07:55:43;;;;;;;3.10;0.90;;;;;;;;;;5030630;28;20126;-65
2023/02/05 07:58:10;;;;;;;4.65;0.85;;;;;;;;;;5030879;28;20052;-62
2023/02/05 08:00:36;;;;;;;3.20;0.93;;;;;;;;;;5025094;28;20067;-62
2023/02/05 08:03:03;;;;;;;3.25;1.15;;;;;;;;;;5022827;28;20041;-63
2023/02/05 08:05:30;;;;;;;3.20;0.93;;;;;;;;;;5022494;28;20048;-64
2023/02/05 08:07:56;;;;;;;2.75;0.85;;;;;;;;;;5021705;28;20041;-65
2023/02/05 08:10:23;;;;;;;4.45;1.00;;;;;;;;;;5022353;28;20669;-65
2023/02/05 08:12:49;;;;;;;2.50;0.90;;;;;;;;;;5023230;28;20049;-64
2023/02/05 08:15:16;;;;;;;3.70;0.90;;;;;;;;;;5023129;28;20037;-62
2023/02/05 08:17:43;;;;;;;4.53;1.20;;;;;;;;;;5022637;28;20094;-68
2023/02/05 08:20:10;;;;;;;4.82;1.10;;;;;;;;;;5015254;28;20093;-64
2023/02/05 08:22:37;;;;;;;4.15;1.42;;;;;;;;;;5021764;28;20124;-63
2023/02/05 08:25:05;;;;;;;6.80;1.30;;;;;;;;;;5023963;28;20068;-63
2023/02/05 08:27:33;;;;;;;4.25;1.40;;;;;;;;;;5021735;28;20033;-63
2023/02/05 08:30:00;;;;;;;2.85;0.90;;;;;;;;;;5022294;28;20045;-62
2023/02/05 08:32:26;;;;;;;5.18;1.30;;;;;;;;;;5005038;28;20045;-65
2023/02/05 08:34:53;;;;;;;3.58;1.00;;;;;;;;;;5016605;28;20037;-64
2023/02/05 08:37:20;;;;;;;6.13;1.20;;;;;;;;;;5020113;28;20483;-62
2023/02/05 08:39:48;;;;;;;3.45;1.30;;;;;;;;;;5020992;28;20128;-64
2023/02/05 08:42:14;;;;;;;3.42;1.40;;;;;;;;;;5021765;28;20164;-62
2023/02/05 08:44:41;;;;;;;4.90;1.17;;;;;;;;;;5019120;28;20041;-64
2023/02/05 08:47:08;;;;;;;3.47;1.20;;;;;;;;;;5006226;28;20088;-63
2023/02/05 08:49:35;;;;;;;3.97;1.52;;;;;;;;;;5017847;28;20118;-67
2023/02/05 08:52:02;;;;;;;4.72;1.20;;;;;;;;;;5015942;28;20037;-63
2023/02/05 08:54:28;;;;;;;3.08;1.10;;;;;;;;;;5001558;28;20046;-63
2023/02/05 08:56:55;;;;;;;4.10;1.40;;;;;;;;;;5001268;28;21285;-66
2023/02/05 08:59:22;;;;;;;4.10;1.20;;;;;;;;;;5001554;28;21402;-65
2023/02/05 09:01:49;;;;;;;4.00;1.63;;;;;;;;;;5011010;28;20092;-63
2023/02/05 09:04:16;;;;;;;3.75;1.50;;;;;;;;;;5001628;28;20403;-68
2023/02/05 09:06:43;;;;;;;3.88;1.52;;;;;;;;;;5012217;28;20038;-63
2023/02/05 09:09:10;;;;;;;4.03;1.58;;;;;;;;;;5003373;28;20489;-62
2023/02/05 09:11:37;;;;;;;5.65;1.98;;;;;;;;;;5009713;28;20580;-62
2023/02/05 09:14:04;;;;;;;6.45;1.90;;;;;;;;;;5014834;28;20711;-61
2023/02/05 09:16:31;;;;;;;5.03;1.73;;;;;;;;;;5011724;28;20045;-64
2023/02/05 09:18:58;;;;;;;4.82;1.60;;;;;;;;;;5013274;28;20069;-61
2023/02/05 09:21:25;;;;;;;3.97;1.40;;;;;;;;;;5019295;28;20119;-62
2023/02/05 09:23:52;;;;;;;7.65;1.50;;;;;;;;;;5021036;28;20388;-63
2023/02/05 09:26:19;;;;;;;5.93;1.38;;;;;;;;;;5020229;28;20036;-64
2023/02/05 09:28:46;;;;;;;4.25;1.50;;;;;;;;;;5021393;28;20046;-63
2023/02/05 09:31:14;;;;;;;3.85;0.98;;;;;;;;;;5019564;28;20084;-63
2023/02/05 09:33:41;;;;;;;4.72;1.30;;;;;;;;;;5020678;28;20036;-64
2023/02/05 09:36:12;;;;;;;5.40;1.65;;;;;;;;;;5021875;28;20053;-63
2023/02/05 09:38:40;;;;;;;3.10;1.10;;;;;;;;;;5018923;28;20475;-64
2023/02/05 09:41:14;;;;;;;3.72;1.10;;;;;;;;;;5022238;28;20509;-65
2023/02/05 09:43:56;;;;;;;5.03;1.27;;;;;;;;;;5015342;28;20048;-59
2023/02/05 09:46:41;;;;;;;2.85;0.90;;;;;;;;;;5010335;28;20078;-61
2023/02/05 09:49:08;;;;;;;5.80;1.20;;;;;;;;;;5018206;28;20118;-65
2023/02/05 09:51:35;;;;;;;3.95;0.98;;;;;;;;;;5023021;28;20056;-63
2023/02/05 09:54:22;;;;;;;3.22;1.00;;;;;;;;;;5029900;28;20037;-65
2023/02/05 09:56:50;;;;;;;4.78;1.40;;;;;;;;;;5025924;28;20037;-64
2023/02/05 09:59:18;;;;;;;2.90;1.08;;;;;;;;;;5033912;28;20099;-62
2023/02/05 10:01:47;;;;;;;5.60;1.30;;;;;;;;;;5032363;28;20037;-64
2023/02/05 10:04:14;;;;;;;7.78;1.63;;;;;;;;;;5035941;28;20045;-63
2023/02/05 10:07:00;;;;;;;3.63;1.27;;;;;;;;;;5036251;28;20040;-63
2023/02/05 10:09:29;;;;;;;3.10;1.13;;;;;;;;;;5032123;28;20061;-67
2023/02/05 10:12:22;;;;;;;7.70;1.42;;;;;;;;;;5033567;28;20038;-65
2023/02/05 10:15:08;;;;;;;3.08;1.00;;;;;;;;;;5006188;28;20129;-63
2023/02/05 10:17:46;;;;;;;3.13;1.00;;;;;;;;;;5027574;28;20057;-63
2023/02/05 10:20:19;;;;;;;4.70;1.35;;;;;;;;;;5027065;28;20047;-64
2023/02/05 10:23:00;;;;;;;4.60;1.35;;;;;;;;;;5022719;28;20089;-63
2023/02/05 10:25:44;;;;;;;3.10;1.20;;;;;;;;;;5020505;28;20492;-62
2023/02/05 10:28:17;;;;;;;3.92;1.50;;;;;;;;;;5034127;28;20037;-61
2023/02/05 10:30:58;;;;;;;4.32;1.48;;;;;;;;;;5032803;28;20041;-65
2023/02/05 10:33:38;;;;;;;4.28;1.05;;;;;;;;;;5033517;28;20064;-64
2023/02/05 10:36:07;;;;;;;3.08;1.08;;;;;;;;;;5035832;28;20033;-61
2023/02/05 10:38:36;;;;;;;4.10;1.33;;;;;;;;;;5035185;28;20044;-63
2023/02/05 10:41:26;;;;;;;4.10;1.35;;;;;;;;;;5035591;28;20041;-65
2023/02/05 10:44:17;;;;;;;3.17;0.90;;;;;;;;;;5025685;28;20056;-64
2023/02/05 10:46:50;;;;;;;4.00;1.00;;;;;;;;;;5029839;28;20068;-64
2023/02/05 10:49:21;;;;;;;2.90;0.85;;;;;;;;;;5032095;28;20051;-64
2023/02/05 10:51:48;;;;;;;2.38;0.80;;;;;;;;;;5004551;28;20040;-65
2023/02/05 10:54:28;;;;;;;2.10;0.70;;;;;;;;;;5002682;28;20124;-64
2023/02/05 10:56:58;;;;;;;1.48;0.52;;;;;;;;;;4988044;28;20039;-65
2023/02/05 10:59:30;;;;;;;1.80;0.60;;;;;;;;;;4999698;28;20507;-65
2023/02/05 11:02:01;;;;;;;2.00;0.60;;;;;;;;;;4974353;28;20155;-66
2023/02/05 11:04:33;;;;;;;1.77;0.60;;;;;;;;;;4978354;28;20033;-64
2023/02/05 11:07:04;;;;;;;2.28;0.63;;;;;;;;;;4998483;28;20034;-63
2023/02/05 11:09:33;;;;;;;1.73;0.60;;;;;;;;;;4980095;28;20415;-64
2023/02/05 11:12:01;;;;;;;1.38;0.47;;;;;;;;;;4983927;28;20128;-65
2023/02/05 11:14:32;;;;;;;2.22;0.80;;;;;;;;;;4987699;28;20489;-64
2023/02/05 11:17:00;;;;;;;2.50;0.65;;;;;;;;;;5000338;28;20443;-63
2023/02/05 11:19:28;;;;;;;2.45;0.68;;;;;;;;;;4984337;28;20042;-62
2023/02/05 11:21:59;;;;;;;1.98;0.60;;;;;;;;;;4989217;28;20184;-63
2023/02/05 11:24:38;;;;;;;2.13;0.70;;;;;;;;;;4978933;28;20172;-62
2023/02/05 11:27:13;;;;;;;1.30;0.50;;;;;;;;;;4997294;28;20186;-62
2023/02/05 11:29:40;;;;;;;2.80;0.50;;;;;;;;;;4986740;28;20047;-63
2023/02/05 11:32:26;;;;;;;2.97;0.75;;;;;;;;;;4978044;28;20109;-64
2023/02/05 11:35:07;;;;;;;5.57;0.90;;;;;;;;;;5000499;28;20045;-63
2023/02/05 11:37:38;;;;;;;2.42;0.70;;;;;;;;;;4996336;28;20050;-63
2023/02/05 11:40:05;;;;;;;2.83;0.68;;;;;;;;;;4981115;28;20490;-63
2023/02/05 11:42:31;;;;;;;2.53;0.80;;;;;;;;;;4979629;28;20133;-63
2023/02/05 11:45:00;;;;;;;2.90;0.88;;;;;;;;;;4980073;28;20096;-62
2023/02/05 11:47:26;;;;;;;2.55;0.88;;;;;;;;;;4982183;28;20603;-64
2023/02/05 11:49:53;;;;;;;2.70;0.80;;;;;;;;;;4977799;28;20484;-64
2023/02/05 11:52:27;;;;;;;2.65;0.70;;;;;;;;;;4981120;28;20045;-64
2023/02/05 11:54:54;;;;;;;3.75;0.73;;;;;;;;;;4980362;28;20058;-65
2023/02/05 11:57:41;;;;;;;2.65;1.00;;;;;;;;;;5047052;28;22411;-63
2023/02/05 12:00:11;;;;;;;2.03;0.70;;;;;;;;;;5046690;28;20102;-63
2023/02/05 12:02:41;;;;;;;2.80;0.63;;;;;;;;;;5036698;28;20040;-64
2023/02/05 12:05:28;;;;;;;3.05;0.93;;;;;;;;;;5055782;28;20202;-62
2023/02/05 12:08:13;;;;;;;1.67;0.63;;;;;;;;;;5053481;28;20048;-63
2023/02/05 12:10:59;;;;;;;3.08;0.80;;;;;;;;;;5050412;28;20033;-65
2023/02/05 12:13:26;;;;;;;2.80;0.90;;;;;;;;;;5052602;28;20040;-63
2023/02/05 12:16:28;;;;;;;4.97;0.90;;;;;;;;;;5054115;28;20909;-64
2023/02/05 12:19:14;;;;;;;2.60;0.90;;;;;;;;;;5014738;28;20042;-64
2023/02/05 12:21:41;;;;;;;3.70;1.00;;;;;;;;;;5054545;28;20032;-63
2023/02/05 12:24:43;;;;;;;3.90;0.90;;;;;;;;;;5058473;28;20048;-64
2023/02/05 12:27:10;;;;;;;2.60;0.70;;;;;;;;;;5017607;28;20516;-64
2023/02/05 12:29:57;;;;;;;2.92;0.80;;;;;;;;;;5032454;28;20036;-65
2023/02/05 12:32:42;;;;;;;2.35;0.60;;;;;;;;;;5056910;28;20041;-63
2023/02/05 12:35:30;;;;;;;1.85;0.50;;;;;;;;;;5027848;28;20042;-66
2023/02/05 12:38:02;;;;;;;2.78;0.80;;;;;;;;;;4982154;28;20442;-64
2023/02/05 12:40:39;;;;;;;2.88;0.88;;;;;;;;;;4977254;28;20050;-64
2023/02/05 12:43:32;;;;;;;2.35;0.80;;;;;;;;;;4985376;28;20066;-63
2023/02/05 12:45:58;;;;;;;2.60;0.70;;;;;;;;;;4978562;28;20053;-64
2023/02/05 12:48:48;;;;;;;1.83;0.60;;;;;;;;;;4976701;28;20046;-65
2023/02/05 12:51:35;;;;;;;1.65;0.60;;;;;;;;;;4978687;28;20042;-65
2023/02/05 12:54:16;;;;;;;2.10;0.70;;;;;;;;;;4979137;28;20568;-63
2023/02/05 12:56:53;;;;;;;2.55;0.40;;;;;;;;;;4997533;28;20711;-65
2023/02/05 12:59:31;;;;;;;4.22;0.63;;;;;;;;;;4979402;28;20503;-64
2023/02/05 13:02:16;;;;;;;2.17;0.60;;;;;;;;;;4996215;28;20201;-67
2023/02/05 13:04:49;;;;;;;1.80;0.52;;;;;;;;;;4982922;28;20091;-62
2023/02/05 13:07:24;;;;;;;1.77;0.60;;;;;;;;;;4984761;28;20049;-63
2023/02/05 13:09:55;;;;;;;1.88;0.60;;;;;;;;;;4984941;28;20034;-65
2023/02/05 13:12:23;;;;;;;2.88;0.65;;;;;;;;;;4985172;28;20053;-63
2023/02/05 13:15:05;;;;;;;2.20;0.68;;;;;;;;;;4976674;28;20050;-64
2023/02/05 13:17:35;;;;;;;2.47;0.88;;;;;;;;;;4972772;28;20137;-63
2023/02/05 13:28:38;;;;;;;1.92;0.60;;;;;;;;;;4974084;28;20038;-63
2023/02/05 13:28:47;;;;;;;2.08;0.65;;;;;;;;;;4959894;28;20046;-63
2023/02/05 13:31:20;;;;;;;2.03;0.60;;;;;;;;;;4949825;28;20039;-62
2023/02/05 13:33:48;;;;;;;2.90;0.70;;;;;;;;;;4962557;28;20047;-66
2023/02/05 13:36:33;;;;;;;3.83;0.80;;;;;;;;;;4953430;28;20233;-62
2023/02/05 13:39:38;;;;;;;1.90;0.60;;;;;;;;;;4953705;28;20166;-65
2023/02/05 13:42:07;;;;;;;1.33;0.60;;;;;;;;;;4937279;28;20098;-62
2023/02/05 13:44:56;;;;;;;2.00;0.70;;;;;;;;;;4880525;29;20140;-64
2023/02/05 13:47:26;;;;;;;2.50;0.80;;;;;;;;;;4893091;29;20046;-64
2023/02/05 13:50:11;;;;;;;2.63;0.98;;;;;;;;;;4896816;29;20040;-63
2023/02/05 13:52:53;;;;;;;3.80;1.20;;;;;;;;;;4918688;28;20043;-63
2023/02/05 13:55:54;;;;;;;3.30;0.85;;;;;;;;;;4893984;29;20096;-63
2023/02/05 13:58:23;;;;;;;4.20;0.93;;;;;;;;;;4900514;29;20056;-64
2023/02/05 14:01:01;;;;;;;2.85;0.80;;;;;;;;;;4886999;29;20040;-67
2023/02/05 14:03:33;;;;;;;2.30;0.60;;;;;;;;;;4893989;29;20158;-67
2023/02/05 14:06:12;;;;;;;2.55;0.77;;;;;;;;;;4891129;29;20070;-65
2023/02/05 14:08:39;;;;;;;4.55;0.80;;;;;;;;;;4888034;29;20063;-65
2023/02/05 14:11:07;;;;;;;5.38;0.95;;;;;;;;;;4887188;29;20047;-64
2023/02/05 14:13:35;;;;;;;5.00;0.90;;;;;;;;;;4875280;29;20764;-64
2023/02/05 14:16:19;;;;;;;2.00;0.70;;;;;;;;;;4917653;28;20054;-62
2023/02/05 14:18:47;;;;;;;2.70;0.80;;;;;;;;;;4944731;28;20096;-65
2023/02/05 14:21:29;;;;;;;2.38;0.82;;;;;;;;;;4945240;28;20053;-64
2023/02/05 14:24:00;;;;;;;2.20;0.70;;;;;;;;;;4955539;28;20125;-65
2023/02/05 14:26:52;;;;;;;2.88;0.77;;;;;;;;;;4964399;28;20050;-64
2023/02/05 14:29:37;;;;;;;2.03;0.60;;;;;;;;;;4964330;28;20539;-67
2023/02/05 14:32:03;;;;;;;2.35;0.70;;;;;;;;;;4966124;28;20137;-65
2023/02/05 14:34:33;;;;;;;1.55;0.52;;;;;;;;;;4999115;28;20053;-65
2023/02/05 14:37:00;;;;;;;3.65;0.85;;;;;;;;;;5010496;28;20064;-63
2023/02/05 14:39:32;;;;;;;1.98;0.70;;;;;;;;;;4996874;28;20041;-64
2023/02/05 14:42:00;;;;;;;2.60;0.80;;;;;;;;;;4992530;28;20350;-67
2023/02/05 14:44:28;;;;;;;2.42;0.70;;;;;;;;;;4999472;28;20030;-64
2023/02/05 14:47:04;;;;;;;2.70;0.68;;;;;;;;;;4998154;28;20137;-65
2023/02/05 14:49:33;;;;;;;2.78;0.70;;;;;;;;;;4998473;28;20041;-61
2023/02/05 14:52:08;;;;;;;3.78;0.98;;;;;;;;;;5000880;28;20068;-65
2023/02/05 14:54:49;;;;;;;1.90;0.60;;;;;;;;;;4998542;28;20046;-64
2023/02/05 14:57:19;;;;;;;2.75;0.80;;;;;;;;;;5002159;28;20390;-63
2023/02/05 14:59:54;;;;;;;2.35;0.80;;;;;;;;;;4999760;28;20483;-63
2023/02/05 15:02:39;;;;;;;2.55;0.70;;;;;;;;;;4999574;28;20115;-60
2023/02/05 15:05:06;;;;;;;2.50;0.60;;;;;;;;;;5000474;28;20034;-59
2023/02/05 15:07:35;;;;;;;2.22;0.80;;;;;;;;;;4999469;28;20087;-61
2023/02/05 15:10:03;;;;;;;5.22;0.80;;;;;;;;;;4999174;28;20038;-63
2023/02/05 15:12:52;;;;;;;4.35;0.60;;;;;;;;;;4998586;28;20061;-62
2023/02/05 15:15:35;;;;;;;1.85;0.55;;;;;;;;;;4994956;28;20034;-61
2023/02/05 15:18:04;;;;;;;2.45;0.77;;;;;;;;;;5000373;28;20038;-62
2023/02/05 15:20:34;;;;;;;4.50;0.80;;;;;;;;;;4998525;28;20479;-62